Search for airport 
image banner adimage banner adimage banner ad
image banner ad

KHAF - Half Moon Bay

Located in Half Moon Bay, United States

ICAO - HAF, IATA - HAF

Data provided by Airmate  

General information

Coordinates: N37°30'48" W122°30'4"
Elevation is 66 feet MSL.
Magnetic variation is 15° East
View others Airports in California

Operational data

Special qualification required
Current time UTC:
Current local time:
Weather
METAR: KHAF 240935Z AUTO 24003KT 10SM OVC019 15/12 A3001 RMK AO2
View NOTAMs / SUP AIP / TFR affecting this airport [VIEW]
Communications frequencies: [VIEW]

Runways:

RWY identifierQFULength (ft)Width (ft)SurfaceLDA (ft)
12137°5000150OTHER
30317°5000150OTHER

Airport contact information

Address: Half Moon Bay United States

Satellite view of KHAF